Time;durP1;ratioP1;P1;durP2;ratioP2;P2;SDS_P1;SDS_P2;PMS_P1;PMS_P2;Temp;Humidity;BMP_temperature;BMP_pressure;BME280_temperature;BME280_humidity;BME280_pressure;Samples;Min_cycle;Max_cycle;Signal;HPM_P1;HPM_P2
2024/01/28 00:01:46;;;;;;;5.35;2.40;;;;;;;-3.29;100.00;101341.63;6206116;23;20424;-57
2024/01/28 00:04:16;;;;;;;4.88;2.10;;;;;;;-3.19;100.00;101354.13;6190232;23;20086;-56
2024/01/28 00:06:49;;;;;;;5.53;2.33;;;;;;;-3.13;100.00;101359.56;6205298;23;20024;-56
2024/01/28 00:09:19;;;;;;;3.33;2.00;;;;;;;-3.11;100.00;101363.09;6190306;23;20086;-57
2024/01/28 00:11:50;;;;;;;4.28;1.90;;;;;;;-3.11;100.00;101352.88;6206859;23;20016;-56
2024/01/28 00:14:20;;;;;;;2.50;1.90;;;;;;;-3.10;100.00;101359.72;6192120;23;20024;-57
2024/01/28 00:16:51;;;;;;;3.20;1.98;;;;;;;-3.08;100.00;101357.28;6207770;23;20051;-57
2024/01/28 00:19:21;;;;;;;4.13;2.30;;;;;;;-3.04;100.00;101354.09;6191847;23;20048;-57
2024/01/28 00:21:53;;;;;;;4.50;1.90;;;;;;;-3.01;100.00;101358.50;6206433;23;20449;-54
2024/01/28 00:24:24;;;;;;;5.60;2.00;;;;;;;-2.94;100.00;101360.63;6191521;23;20034;-56
2024/01/28 00:26:55;;;;;;;4.18;2.33;;;;;;;-2.93;100.00;101360.69;6206954;23;20043;-55
2024/01/28 00:29:28;;;;;;;4.28;2.00;;;;;;;-2.87;100.00;101355.00;6191920;23;20104;-56
2024/01/28 00:32:00;;;;;;;1.98;1.83;;;;;;;-2.82;100.00;101362.16;6207499;23;20023;-54
2024/01/28 00:34:30;;;;;;;2.92;2.15;;;;;;;-2.80;100.00;101362.22;6192081;23;20028;-52
2024/01/28 00:37:03;;;;;;;3.92;2.10;;;;;;;-2.75;100.00;101362.50;6206689;23;20020;-55
2024/01/28 00:39:33;;;;;;;4.85;1.90;;;;;;;-2.64;100.00;101361.41;6192056;23;20048;-56
2024/01/28 00:42:04;;;;;;;5.25;1.95;;;;;;;-2.59;100.00;101364.22;6206509;23;20020;-54
2024/01/28 00:44:35;;;;;;;2.05;1.70;;;;;;;-2.55;100.00;101355.91;6191632;23;20020;-57
2024/01/28 00:47:06;;;;;;;3.00;1.92;;;;;;;-2.52;100.00;101356.06;6207235;23;20380;-55
2024/01/28 00:49:36;;;;;;;4.68;1.80;;;;;;;-2.41;100.00;101365.22;6192248;23;20020;-58
2024/01/28 00:52:09;;;;;;;1.92;1.45;;;;;;;-2.32;100.00;101359.69;6207008;23;20048;-59
2024/01/28 00:54:39;;;;;;;2.13;1.80;;;;;;;-2.27;100.00;101368.50;6191644;23;20031;-56
2024/01/28 00:57:10;;;;;;;2.85;2.35;;;;;;;-2.30;100.00;101373.44;6206862;23;20024;-56
2024/01/28 00:59:41;;;;;;;5.32;1.80;;;;;;;-2.29;100.00;101371.00;6191287;23;20561;-56
2024/01/28 01:02:11;;;;;;;5.00;1.60;;;;;;;-2.22;100.00;101367.97;6207464;23;20111;-58
2024/01/28 01:04:42;;;;;;;4.55;1.60;;;;;;;-2.31;100.00;101370.03;6191864;23;20648;-58
2024/01/28 01:07:14;;;;;;;3.38;1.73;;;;;;;-2.32;100.00;101365.72;6204358;23;20024;-58
2024/01/28 01:09:44;;;;;;;2.05;1.45;;;;;;;-2.28;100.00;101372.72;6206622;23;20044;-56
2024/01/28 01:12:15;;;;;;;2.42;1.60;;;;;;;-2.30;100.00;101361.53;6191368;23;20024;-56
2024/01/28 01:14:45;;;;;;;3.33;1.90;;;;;;;-2.21;100.00;101369.69;6206646;23;20016;-58
2024/01/28 01:17:16;;;;;;;2.22;1.83;;;;;;;-2.21;100.00;101374.81;6191317;23;20067;-58
2024/01/28 01:19:47;;;;;;;2.80;1.80;;;;;;;-2.12;100.00;101368.41;6207131;23;20047;-58
2024/01/28 01:22:19;;;;;;;4.40;1.80;;;;;;;-2.02;100.00;101355.28;6190551;23;20035;-59
2024/01/28 01:24:49;;;;;;;5.78;1.63;;;;;;;-2.03;100.00;101363.78;6205982;23;20078;-57
2024/01/28 01:27:19;;;;;;;4.38;1.75;;;;;;;-2.01;100.00;101360.50;6191338;23;20030;-58
2024/01/28 01:29:50;;;;;;;3.17;1.95;;;;;;;-2.06;100.00;101368.75;6204920;23;20020;-58
2024/01/28 01:32:20;;;;;;;2.58;1.50;;;;;;;-2.06;100.00;101358.50;6190977;23;20055;-60
2024/01/28 01:34:51;;;;;;;2.72;1.63;;;;;;;-2.07;100.00;101356.72;6206432;23;20023;-58
2024/01/28 01:37:23;;;;;;;1.73;1.50;;;;;;;-1.99;100.00;101360.59;6191357;23;20016;-62
2024/01/28 01:39:54;;;;;;;3.85;1.90;;;;;;;-1.96;100.00;101363.31;6206372;23;20032;-62
2024/01/28 01:42:24;;;;;;;2.20;2.00;;;;;;;-1.86;100.00;101357.84;6190924;23;20044;-59
2024/01/28 01:44:55;;;;;;;3.35;1.67;;;;;;;-1.90;100.00;101350.81;6206068;23;20050;-58
2024/01/28 01:47:26;;;;;;;2.78;2.00;;;;;;;-1.87;100.00;101356.09;6190662;23;20016;-59
2024/01/28 01:49:57;;;;;;;3.47;1.90;;;;;;;-1.96;100.00;101351.38;6206567;23;20023;-59
2024/01/28 01:52:29;;;;;;;4.45;1.80;;;;;;;-1.91;100.00;101349.06;6191161;23;20024;-62
2024/01/28 01:55:00;;;;;;;2.30;1.90;;;;;;;-1.91;100.00;101359.31;6206282;23;20028;-59
2024/01/28 01:57:31;;;;;;;4.03;1.80;;;;;;;-2.00;100.00;101348.56;6190303;23;20412;-58
2024/01/28 02:00:01;;;;;;;2.67;1.80;;;;;;;-2.00;100.00;101354.59;6205843;23;20024;-59
2024/01/28 02:02:33;;;;;;;2.78;1.75;;;;;;;-1.99;100.00;101355.47;6191109;23;20089;-60
2024/01/28 02:05:04;;;;;;;3.22;1.80;;;;;;;-1.91;100.00;101343.94;6206235;23;20100;-60
2024/01/28 02:07:36;;;;;;;5.75;1.92;;;;;;;-1.80;100.00;101347.03;6185138;23;20020;-60
2024/01/28 02:10:09;;;;;;;3.45;1.63;;;;;;;-1.85;100.00;101344.22;6203127;23;20081;-58
2024/01/28 02:12:40;;;;;;;3.25;1.80;;;;;;;-1.91;100.00;101343.94;6187903;23;20516;-58
2024/01/28 02:15:11;;;;;;;5.15;1.88;;;;;;;-2.03;100.00;101345.88;6203691;23;20024;-59
2024/01/28 02:17:42;;;;;;;2.70;1.90;;;;;;;-2.09;100.00;101353.25;6188419;23;20027;-59
2024/01/28 02:20:13;;;;;;;2.63;2.10;;;;;;;-2.12;100.00;101341.16;6201340;23;20091;-58
2024/01/28 02:22:46;;;;;;;2.10;1.80;;;;;;;-2.07;100.00;101343.94;6204373;23;20028;-59
2024/01/28 02:25:18;;;;;;;4.40;1.60;;;;;;;-2.08;100.00;101345.63;6188141;23;20066;-59
2024/01/28 02:27:48;;;;;;;2.25;1.80;;;;;;;-2.02;100.00;101337.38;6203471;23;20102;-58
2024/01/28 02:30:19;;;;;;;3.25;1.98;;;;;;;-1.84;100.00;101333.19;6187777;23;20090;-60
2024/01/28 02:32:50;;;;;;;5.05;1.83;;;;;;;-1.85;100.00;101321.16;6202890;23;20444;-59
2024/01/28 02:35:21;;;;;;;2.40;1.90;;;;;;;-2.08;100.00;101303.78;6188219;23;20024;-59
2024/01/28 02:37:51;;;;;;;2.05;1.70;;;;;;;-1.93;100.00;101335.28;6203576;23;20342;-58
2024/01/28 02:40:23;;;;;;;4.30;2.13;;;;;;;-1.94;100.00;101338.66;6188044;23;20024;-59
2024/01/28 02:42:54;;;;;;;3.60;2.08;;;;;;;-1.87;100.00;101340.75;6203069;23;20016;-59
2024/01/28 02:45:24;;;;;;;5.20;2.05;;;;;;;-1.85;100.00;101341.66;6187401;23;20097;-57
2024/01/28 02:47:55;;;;;;;4.82;2.10;;;;;;;-1.81;100.00;101338.47;6203088;23;20038;-60
2024/01/28 02:50:25;;;;;;;5.07;2.25;;;;;;;-1.82;100.00;101341.84;6188076;23;20024;-57
2024/01/28 02:52:56;;;;;;;4.00;1.83;;;;;;;-1.89;100.00;101337.22;6203238;23;20024;-58
2024/01/28 02:55:28;;;;;;;2.78;1.80;;;;;;;-1.78;100.00;101336.06;6187873;23;20468;-56
2024/01/28 02:57:58;;;;;;;4.03;2.13;;;;;;;-1.48;100.00;101330.72;6202105;23;20093;-58
2024/01/28 03:00:29;;;;;;;4.30;2.00;;;;;;;-1.19;100.00;101333.84;6187809;23;20079;-59
2024/01/28 03:03:00;;;;;;;2.60;1.77;;;;;;;-1.11;100.00;101328.25;6202112;23;20020;-59
2024/01/28 03:05:30;;;;;;;2.38;1.70;;;;;;;-1.11;100.00;101327.38;6187744;23;20059;-59
2024/01/28 03:08:01;;;;;;;2.63;1.75;;;;;;;-0.92;100.00;101324.88;6203336;23;20090;-61
2024/01/28 03:10:33;;;;;;;5.50;2.03;;;;;;;-0.92;100.00;101329.13;6187422;23;20119;-60
2024/01/28 03:13:03;;;;;;;2.58;1.83;;;;;;;-1.06;100.00;101336.16;6202801;23;20091;-61
2024/01/28 03:15:34;;;;;;;5.78;2.05;;;;;;;-1.12;100.00;101328.19;6187578;23;20080;-60
2024/01/28 03:18:05;;;;;;;3.33;2.30;;;;;;;-1.14;100.00;101328.09;6203073;23;20888;-58
2024/01/28 03:20:36;;;;;;;3.17;2.20;;;;;;;-1.11;100.00;101319.69;6188020;23;20016;-61
2024/01/28 03:23:06;;;;;;;2.83;2.00;;;;;;;-1.33;100.00;101325.44;6203307;23;20020;-62
2024/01/28 03:25:38;;;;;;;3.28;1.65;;;;;;;-1.29;100.00;101336.75;6187990;23;20028;-61
2024/01/28 03:28:09;;;;;;;3.70;2.17;;;;;;;-1.29;100.00;101326.50;6202637;23;20129;-62
2024/01/28 03:30:39;;;;;;;4.65;2.08;;;;;;;-1.22;100.00;101323.41;6187211;23;20130;-62
2024/01/28 03:33:09;;;;;;;4.10;1.83;;;;;;;-1.38;100.00;101316.66;6203200;23;20048;-62
2024/01/28 03:35:40;;;;;;;2.70;2.13;;;;;;;-1.45;100.00;101320.59;6187551;23;20016;-59
2024/01/28 03:38:10;;;;;;;4.25;2.65;;;;;;;-1.42;100.00;101315.66;6203689;23;20017;-61
2024/01/28 03:40:43;;;;;;;4.20;2.20;;;;;;;-1.41;100.00;101322.53;6188235;23;20040;-60
2024/01/28 03:43:13;;;;;;;8.00;2.55;;;;;;;-1.39;100.00;101310.66;6191742;23;20039;-60
2024/01/28 03:45:44;;;;;;;3.35;2.17;;;;;;;-1.53;100.00;101321.91;6204435;23;20094;-60
2024/01/28 03:48:14;;;;;;;7.45;2.60;;;;;;;-1.46;100.00;101313.72;6190528;23;20843;-57
2024/01/28 03:50:45;;;;;;;6.15;2.83;;;;;;;-1.26;100.00;101317.25;6204962;23;20028;-58
2024/01/28 03:53:15;;;;;;;4.68;3.22;;;;;;;-0.94;100.00;101311.09;6189855;23;20471;-58
2024/01/28 03:55:47;;;;;;;6.90;2.67;;;;;;;-0.82;100.00;101315.03;6205176;23;20094;-59
2024/01/28 03:58:18;;;;;;;6.20;3.10;;;;;;;-0.83;100.00;101313.28;6189667;23;20123;-60
2024/01/28 04:00:49;;;;;;;8.98;2.85;;;;;;;-0.57;100.00;101328.19;6204855;23;20035;-59
2024/01/28 04:03:19;;;;;;;7.28;2.70;;;;;;;-0.37;99.99;101305.13;6189532;23;20081;-57
2024/01/28 04:05:50;;;;;;;7.75;3.10;;;;;;;-0.53;99.71;101314.69;6204414;23;20026;-58
2024/01/28 04:08:21;;;;;;;8.07;3.17;;;;;;;-0.90;100.00;101317.25;6189650;23;20031;-59
2024/01/28 04:10:53;;;;;;;8.32;3.25;;;;;;;-1.16;100.00;101316.00;6205166;23;20024;-57
2024/01/28 04:13:23;;;;;;;6.07;3.08;;;;;;;-1.35;100.00;101307.44;6189380;23;20105;-59
2024/01/28 04:15:54;;;;;;;6.32;3.08;;;;;;;-1.50;100.00;101311.81;6204752;23;20138;-59
2024/01/28 04:18:24;;;;;;;7.30;2.97;;;;;;;-1.47;100.00;101317.09;6189244;23;20467;-59
2024/01/28 04:20:55;;;;;;;8.10;3.00;;;;;;;-1.37;100.00;101309.06;6204384;23;20024;-57
2024/01/28 04:23:25;;;;;;;6.00;2.35;;;;;;;-1.21;100.00;101302.97;6188180;23;20166;-60
2024/01/28 04:25:58;;;;;;;6.90;3.10;;;;;;;-1.10;100.00;101318.84;6204760;23;20401;-59
2024/01/28 04:28:28;;;;;;;13.38;3.55;;;;;;;-1.16;100.00;101324.59;6189153;23;20032;-58
2024/01/28 04:30:59;;;;;;;10.32;3.50;;;;;;;-1.06;100.00;101310.50;6202880;23;20058;-60
2024/01/28 04:33:30;;;;;;;6.82;3.35;;;;;;;-1.20;100.00;101316.66;6186840;23;20408;-60
2024/01/28 04:36:00;;;;;;;10.93;3.65;;;;;;;-1.31;100.00;101317.03;6202637;23;20020;-58
2024/01/28 04:38:31;;;;;;;9.30;2.97;;;;;;;-1.34;100.00;101324.59;6187733;23;20022;-59
2024/01/28 04:41:03;;;;;;;11.38;3.72;;;;;;;-1.39;100.00;101326.03;6202892;23;20034;-57
2024/01/28 04:43:34;;;;;;;10.30;3.28;;;;;;;-1.42;100.00;101331.03;6187853;23;20080;-60
2024/01/28 04:46:05;;;;;;;12.50;3.53;;;;;;;-1.58;100.00;101333.63;6202633;23;20481;-59
2024/01/28 04:48:35;;;;;;;13.93;3.90;;;;;;;-1.67;100.00;101334.06;6189339;23;20171;-60
2024/01/28 04:51:06;;;;;;;12.35;3.67;;;;;;;-1.93;100.00;101301.97;6203407;23;20024;-58
2024/01/28 04:53:36;;;;;;;12.68;4.65;;;;;;;-1.68;100.00;101332.28;6188945;23;20020;-60
2024/01/28 04:56:11;;;;;;;7.50;3.22;;;;;;;-1.68;100.00;101344.22;6204464;23;20103;-60
2024/01/28 04:58:42;;;;;;;7.95;3.58;;;;;;;-1.67;100.00;101333.16;6189291;23;20020;-59
2024/01/28 05:01:12;;;;;;;6.55;3.33;;;;;;;-1.63;100.00;101337.63;6204563;23;20154;-60
2024/01/28 05:03:43;;;;;;;9.88;4.07;;;;;;;-1.61;100.00;101338.59;6188357;23;20039;-58
2024/01/28 05:06:13;;;;;;;13.77;3.80;;;;;;;-1.62;100.00;101336.81;6194509;23;20090;-57
2024/01/28 05:08:44;;;;;;;10.07;3.40;;;;;;;-1.53;100.00;101343.28;6204233;23;20070;-60
2024/01/28 05:11:16;;;;;;;9.50;3.20;;;;;;;-1.60;100.00;101343.81;6188766;23;20457;-56
2024/01/28 05:13:47;;;;;;;10.32;3.15;;;;;;;-1.67;100.00;101339.19;6204608;23;20062;-60
2024/01/28 05:16:17;;;;;;;12.50;3.92;;;;;;;-1.57;100.00;101350.78;6188770;23;20108;-58
2024/01/28 05:18:48;;;;;;;12.07;3.70;;;;;;;-1.69;100.00;101362.97;6204341;23;20024;-59
2024/01/28 05:21:18;;;;;;;14.25;3.70;;;;;;;-1.82;100.00;101354.66;6188481;23;20043;-59
2024/01/28 05:23:49;;;;;;;12.75;3.67;;;;;;;-1.89;100.00;101367.94;6203418;23;20023;-59
2024/01/28 05:26:21;;;;;;;8.57;3.95;;;;;;;-1.89;100.00;101373.06;6188124;23;20158;-58
2024/01/28 05:28:51;;;;;;;8.25;3.92;;;;;;;-1.80;100.00;101365.88;6204217;23;20082;-59
2024/01/28 05:31:22;;;;;;;13.30;3.90;;;;;;;-1.76;100.00;101370.34;6186951;23;20526;-59
2024/01/28 05:33:52;;;;;;;10.65;3.30;;;;;;;-1.79;100.00;101380.44;6203199;23;20024;-59
2024/01/28 05:36:24;;;;;;;10.27;3.67;;;;;;;-1.84;100.00;101376.75;6188244;23;20024;-59
2024/01/28 05:38:55;;;;;;;9.88;3.45;;;;;;;-1.83;100.00;101387.88;6202864;23;20030;-57
2024/01/28 05:41:27;;;;;;;8.80;3.63;;;;;;;-1.94;100.00;101395.00;6188384;23;20044;-61
2024/01/28 05:43:58;;;;;;;9.57;3.33;;;;;;;-2.07;100.00;101397.72;6204276;23;20082;-60
2024/01/28 05:46:28;;;;;;;7.22;2.92;;;;;;;-2.17;100.00;101394.69;6188526;23;20019;-58
2024/01/28 05:48:59;;;;;;;11.10;3.30;;;;;;;-2.17;100.00;101391.25;6203520;23;20020;-60
2024/01/28 05:51:32;;;;;;;6.88;3.60;;;;;;;-2.21;100.00;101405.56;6188313;23;20063;-59
2024/01/28 05:54:03;;;;;;;7.88;3.20;;;;;;;-2.23;100.00;101402.03;6203057;23;20111;-58
2024/01/28 05:56:35;;;;;;;8.85;3.58;;;;;;;-2.19;100.00;101401.41;6188521;23;20021;-60
2024/01/28 05:59:05;;;;;;;7.43;3.60;;;;;;;-2.21;100.00;101394.44;6203933;23;20051;-59
2024/01/28 06:01:36;;;;;;;5.80;2.95;;;;;;;-2.23;100.00;101407.16;6188606;23;20066;-61
2024/01/28 06:04:09;;;;;;;8.68;3.33;;;;;;;-2.26;100.00;101407.00;6203413;23;20512;-58
2024/01/28 06:06:42;;;;;;;9.05;3.20;;;;;;;-2.28;100.00;101397.47;6187449;23;20039;-58
2024/01/28 06:09:12;;;;;;;8.60;3.50;;;;;;;-2.32;100.00;101406.66;6201043;23;20099;-58
2024/01/28 06:11:45;;;;;;;12.70;3.40;;;;;;;-2.29;100.00;101424.75;6203724;23;20016;-61
2024/01/28 06:14:15;;;;;;;6.88;3.13;;;;;;;-2.31;100.00;101423.78;6187502;23;20016;-57
2024/01/28 06:16:45;;;;;;;7.50;3.60;;;;;;;-2.33;100.00;101421.94;6204137;23;20054;-57
2024/01/28 06:19:16;;;;;;;8.35;3.50;;;;;;;-2.37;100.00;101428.59;6188054;23;20028;-60
2024/01/28 06:21:46;;;;;;;8.98;3.47;;;;;;;-2.43;100.00;101428.22;6203677;23;20344;-59
2024/01/28 06:24:17;;;;;;;5.45;2.85;;;;;;;-2.52;100.00;101435.41;6187834;23;20082;-57
2024/01/28 06:26:49;;;;;;;6.68;3.15;;;;;;;-2.64;100.00;101433.94;6202523;23;20019;-60
2024/01/28 06:29:23;;;;;;;6.85;3.00;;;;;;;-2.78;100.00;101429.72;6187868;23;20028;-59
2024/01/28 06:31:53;;;;;;;7.43;3.13;;;;;;;-2.93;100.00;101444.19;6203788;23;20023;-60
2024/01/28 06:34:24;;;;;;;7.57;3.50;;;;;;;-3.05;100.00;101445.25;6187897;23;20020;-60
2024/01/28 06:36:54;;;;;;;10.55;2.92;;;;;;;-3.12;100.00;101448.28;6202261;23;20070;-58
2024/01/28 06:39:25;;;;;;;10.60;3.28;;;;;;;-3.12;100.00;101457.59;6188142;23;20016;-61
2024/01/28 06:41:57;;;;;;;10.90;3.30;;;;;;;-3.21;100.00;101463.06;6202571;23;20034;-57
2024/01/28 06:44:27;;;;;;;10.88;3.42;;;;;;;-3.25;100.00;101472.22;6188375;23;20020;-59
2024/01/28 06:46:58;;;;;;;9.35;3.10;;;;;;;-3.30;100.00;101457.41;6203657;23;20024;-59
2024/01/28 06:49:27;;;;;;;6.82;3.50;;;;;;;-3.35;100.00;101475.03;6188037;23;20082;-56
2024/01/28 06:51:57;;;;;;;7.82;3.10;;;;;;;-3.39;100.00;101467.13;6203307;23;20032;-60
2024/01/28 06:54:28;;;;;;;7.78;3.00;;;;;;;-3.57;100.00;101457.56;6187791;23;20515;-58
2024/01/28 06:57:00;;;;;;;5.90;3.05;;;;;;;-3.50;100.00;101477.56;6202679;23;20026;-62
2024/01/28 06:59:31;;;;;;;8.85;3.08;;;;;;;-3.54;100.00;101478.19;6188135;23;20052;-59
2024/01/28 07:02:01;;;;;;;10.50;3.70;;;;;;;-3.62;100.00;101471.75;6203203;23;20028;-61
2024/01/28 07:04:31;;;;;;;5.85;2.75;;;;;;;-3.65;100.00;101479.19;6188125;23;20027;-61
2024/01/28 07:07:02;;;;;;;7.72;2.45;;;;;;;-3.69;100.00;101474.72;6202640;23;20020;-58
2024/01/28 07:09:33;;;;;;;6.70;3.05;;;;;;;-3.73;100.00;101476.19;6188311;23;20060;-60
2024/01/28 07:12:08;;;;;;;6.80;2.72;;;;;;;-3.75;100.00;101487.09;6202927;23;20090;-59
2024/01/28 07:14:38;;;;;;;10.77;3.30;;;;;;;-3.79;100.00;101480.94;6187573;23;20027;-58
2024/01/28 07:17:09;;;;;;;12.85;3.75;;;;;;;-3.86;100.00;101477.91;6202989;23;20106;-60
2024/01/28 07:19:40;;;;;;;5.03;2.85;;;;;;;-3.84;100.00;101482.31;6189765;23;20046;-58
2024/01/28 07:22:11;;;;;;;7.82;3.08;;;;;;;-3.83;100.00;101498.53;6205218;23;20046;-60
2024/01/28 07:24:42;;;;;;;9.27;4.03;;;;;;;-3.86;100.00;101499.22;6189545;23;20127;-61
2024/01/28 07:27:14;;;;;;;10.30;3.63;;;;;;;-3.87;100.00;101492.31;6202453;23;20023;-58
2024/01/28 07:29:45;;;;;;;10.35;4.43;;;;;;;-3.92;100.00;101494.63;6204174;23;20621;-57
2024/01/28 07:32:16;;;;;;;8.93;4.03;;;;;;;-3.97;100.00;101498.56;6189756;23;20047;-57
2024/01/28 07:34:46;;;;;;;10.13;3.53;;;;;;;-4.00;100.00;101506.00;6205664;23;20023;-59
2024/01/28 07:37:18;;;;;;;11.48;4.45;;;;;;;-4.00;100.00;101511.13;6187952;23;20095;-58
2024/01/28 07:39:48;;;;;;;11.52;3.42;;;;;;;-4.00;100.00;101511.13;6203344;23;20020;-61
2024/01/28 07:42:20;;;;;;;5.00;3.08;;;;;;;-4.02;100.00;101517.81;6188680;23;20020;-59
2024/01/28 07:44:51;;;;;;;12.23;4.10;;;;;;;-4.06;100.00;101510.75;6204704;23;20031;-61
2024/01/28 07:47:21;;;;;;;11.77;3.72;;;;;;;-4.04;100.00;101521.03;6189371;23;20047;-62
2024/01/28 07:49:52;;;;;;;11.20;3.53;;;;;;;-4.04;100.00;101524.50;6205252;23;20016;-60
2024/01/28 07:52:23;;;;;;;11.55;3.10;;;;;;;-4.00;100.00;101526.44;6189638;23;20024;-60
2024/01/28 07:54:54;;;;;;;5.40;3.10;;;;;;;-4.19;100.00;101504.00;6204878;23;20448;-58
2024/01/28 07:57:26;;;;;;;9.10;3.20;;;;;;;-4.00;100.00;101536.66;6189552;23;20117;-60
2024/01/28 07:59:56;;;;;;;8.93;3.35;;;;;;;-3.97;100.00;101536.88;6204566;23;20028;-60
2024/01/28 08:02:27;;;;;;;7.57;2.80;;;;;;;-4.04;100.00;101527.06;6189807;23;20089;-60
2024/01/28 08:04:58;;;;;;;5.43;3.28;;;;;;;-4.02;100.00;101533.13;6204910;23;20050;-60
2024/01/28 08:07:29;;;;;;;7.53;3.70;;;;;;;-3.98;100.00;101540.19;6189014;23;20036;-61
2024/01/28 08:10:00;;;;;;;6.38;3.25;;;;;;;-4.00;100.00;101539.19;6204155;23;20106;-61
2024/01/28 08:12:33;;;;;;;9.70;3.92;;;;;;;-4.01;100.00;101540.00;6189497;23;20063;-59
2024/01/28 08:15:04;;;;;;;10.23;3.80;;;;;;;-4.02;100.00;101547.56;6203162;23;20020;-60
2024/01/28 08:17:34;;;;;;;9.55;4.40;;;;;;;-4.04;100.00;101544.00;6188670;23;20115;-60
2024/01/28 08:20:07;;;;;;;6.63;3.88;;;;;;;-4.16;100.00;101533.94;6204301;23;20016;-61
2024/01/28 08:22:39;;;;;;;7.47;3.15;;;;;;;-4.09;100.00;101536.09;6188551;23;20494;-60
2024/01/28 08:25:11;;;;;;;8.63;4.20;;;;;;;-4.17;100.00;101537.25;6203537;23;20103;-60
2024/01/28 08:27:44;;;;;;;8.13;3.90;;;;;;;-4.12;100.00;101566.50;6189226;23;20085;-62
2024/01/28 08:30:15;;;;;;;9.68;3.72;;;;;;;-4.13;100.00;101554.53;6188823;23;20024;-59
2024/01/28 08:32:45;;;;;;;6.55;3.70;;;;;;;-4.16;100.00;101554.34;6204074;23;20626;-58
2024/01/28 08:35:16;;;;;;;8.32;2.80;;;;;;;-4.16;100.00;101564.56;6188831;23;20020;-57
2024/01/28 08:37:47;;;;;;;6.60;3.67;;;;;;;-4.18;100.00;101553.38;6203889;23;20256;-61
2024/01/28 08:40:19;;;;;;;6.32;3.10;;;;;;;-4.18;100.00;101561.03;6188742;23;20031;-61
2024/01/28 08:42:51;;;;;;;6.38;3.30;;;;;;;-4.23;100.00;101562.41;6203813;23;20074;-62
2024/01/28 08:45:21;;;;;;;8.25;3.17;;;;;;;-4.24;100.00;101560.63;6188352;23;20035;-61
2024/01/28 08:47:52;;;;;;;9.23;3.55;;;;;;;-4.29;100.00;101562.00;6202569;23;20016;-59
2024/01/28 08:50:23;;;;;;;6.82;3.90;;;;;;;-4.35;100.00;101573.56;6188015;23;20031;-62
2024/01/28 08:52:54;;;;;;;7.50;4.22;;;;;;;-4.42;100.00;101574.00;6204192;23;20024;-60
2024/01/28 08:55:24;;;;;;;6.85;4.20;;;;;;;-4.45;100.00;101571.22;6189023;23;20107;-60
2024/01/28 08:57:56;;;;;;;9.27;4.90;;;;;;;-4.46;100.00;101574.56;6203920;23;20111;-58
2024/01/28 09:00:26;;;;;;;8.02;4.97;;;;;;;-4.46;100.00;101589.88;6188688;23;20461;-60
2024/01/28 09:02:57;;;;;;;7.60;4.80;;;;;;;-4.62;100.00;101564.13;6203431;23;20605;-62
2024/01/28 09:05:27;;;;;;;10.65;5.32;;;;;;;-4.46;100.00;101589.00;6188773;23;20107;-59
2024/01/28 09:07:58;;;;;;;10.95;4.95;;;;;;;-4.47;100.00;101593.19;6203912;23;20512;-59
2024/01/28 09:10:28;;;;;;;7.20;4.05;;;;;;;-4.50;100.00;101592.13;6188649;23;20032;-62
2024/01/28 09:13:00;;;;;;;13.13;4.70;;;;;;;-4.53;100.00;101597.03;6203729;23;20024;-62
2024/01/28 09:15:31;;;;;;;8.65;4.28;;;;;;;-4.58;100.00;101605.25;6188748;23;20028;-58
2024/01/28 09:18:02;;;;;;;10.90;4.20;;;;;;;-4.62;100.00;101610.03;6203247;23;20020;-62
2024/01/28 09:20:32;;;;;;;11.05;4.30;;;;;;;-4.67;100.00;101608.84;6188614;23;20024;-63
2024/01/28 09:23:04;;;;;;;8.48;4.10;;;;;;;-4.72;100.00;101600.00;6204293;23;20021;-59
2024/01/28 09:25:34;;;;;;;9.15;3.72;;;;;;;-4.80;100.00;101608.03;6189183;23;21031;-63
2024/01/28 09:28:07;;;;;;;8.80;3.00;;;;;;;-4.80;100.00;101608.03;6203507;23;20044;-59
2024/01/28 09:30:41;;;;;;;8.73;3.58;;;;;;;-4.82;100.00;101614.72;6187827;23;20060;-62
2024/01/28 09:33:12;;;;;;;7.47;3.28;;;;;;;-4.85;100.00;101614.50;6202775;23;20027;-58
2024/01/28 09:35:44;;;;;;;5.63;3.50;;;;;;;-4.84;100.00;101607.72;6204306;23;20468;-61
2024/01/28 09:38:14;;;;;;;4.72;3.00;;;;;;;-4.87;100.00;101610.06;6189844;23;20486;-59
2024/01/28 09:40:44;;;;;;;6.32;2.90;;;;;;;-4.92;100.00;101614.84;6203445;23;20106;-62
2024/01/28 09:43:24;;;;;;;4.55;3.08;;;;;;;-4.94;100.00;101619.00;6187833;23;20118;-58
2024/01/28 09:45:55;;;;;;;5.88;3.28;;;;;;;-4.94;100.00;101608.78;6202981;23;20082;-60
2024/01/28 09:48:26;;;;;;;10.25;4.30;;;;;;;-4.93;100.00;101618.19;6188032;23;20027;-56
2024/01/28 09:50:57;;;;;;;6.53;3.60;;;;;;;-4.93;100.00;101615.66;6203067;23;20028;-58
2024/01/28 09:53:27;;;;;;;8.15;3.70;;;;;;;-4.97;100.00;101618.75;6188777;23;20078;-61
2024/01/28 09:55:59;;;;;;;5.57;3.80;;;;;;;-5.03;100.00;101623.47;6206166;23;20024;-57
2024/01/28 09:58:31;;;;;;;7.22;4.00;;;;;;;-5.05;100.00;101625.88;6188909;23;20116;-59
2024/01/28 10:01:02;;;;;;;8.05;3.42;;;;;;;-5.10;100.00;101621.25;6203051;23;20032;-59
2024/01/28 10:03:34;;;;;;;10.25;4.25;;;;;;;-5.48;100.00;101563.47;6188916;23;20028;-61
2024/01/28 10:06:06;;;;;;;7.88;4.03;;;;;;;-5.18;100.00;101622.41;6201895;23;20845;-59
2024/01/28 10:08:36;;;;;;;4.20;2.47;;;;;;;-5.21;100.00;101628.19;6188058;23;20318;-58
2024/01/28 10:11:10;;;;;;;5.93;3.25;;;;;;;-5.29;100.00;101625.09;6203791;23;20688;-57
2024/01/28 10:13:42;;;;;;;7.28;2.83;;;;;;;-5.36;100.00;101630.56;6187913;23;20030;-58
2024/01/28 10:16:13;;;;;;;5.30;2.50;;;;;;;-5.47;100.00;101623.81;6196334;23;20078;-58
2024/01/28 10:18:47;;;;;;;8.00;3.00;;;;;;;-5.41;100.00;101629.34;6203071;23;20023;-59
2024/01/28 10:21:18;;;;;;;8.02;2.97;;;;;;;-5.42;100.00;101637.75;6187306;23;20526;-58
2024/01/28 10:23:48;;;;;;;7.03;3.50;;;;;;;-5.40;100.00;101638.75;6202854;23;20051;-58
2024/01/28 10:26:19;;;;;;;8.48;3.90;;;;;;;-5.39;100.00;101643.09;6188010;23;20047;-57
2024/01/28 10:28:51;;;;;;;5.30;3.20;;;;;;;-5.41;100.00;101629.34;6203120;23;20070;-59
2024/01/28 10:31:24;;;;;;;6.95;3.65;;;;;;;-5.46;100.00;101648.53;6187352;23;20024;-57
2024/01/28 10:33:54;;;;;;;5.28;2.95;;;;;;;-5.52;100.00;101645.53;6202664;23;20024;-58
2024/01/28 10:36:26;;;;;;;3.58;2.38;;;;;;;-5.87;100.00;101591.34;6187683;23;20051;-60
2024/01/28 10:39:03;;;;;;;5.68;3.15;;;;;;;-5.54;100.00;101647.06;6202387;23;20024;-59
2024/01/28 10:41:35;;;;;;;7.03;2.60;;;;;;;-5.59;100.00;101648.41;6185017;23;20129;-57
2024/01/28 10:44:10;;;;;;;4.30;2.30;;;;;;;-5.66;100.00;101642.91;6199590;23;20546;-60
2024/01/28 10:46:42;;;;;;;3.97;2.40;;;;;;;-5.60;100.00;101641.56;6187336;23;20051;-57
2024/01/28 10:49:15;;;;;;;3.55;1.95;;;;;;;-5.61;100.00;101637.25;6199753;23;20055;-59
2024/01/28 10:51:51;;;;;;;5.68;2.50;;;;;;;-5.64;100.00;101636.25;6202726;23;20020;-56
2024/01/28 10:54:22;;;;;;;4.55;2.47;;;;;;;-5.59;100.00;101643.31;6187295;23;20085;-58
2024/01/28 10:56:55;;;;;;;6.25;2.65;;;;;;;-5.60;100.00;101641.56;6202839;23;20519;-60
2024/01/28 10:59:28;;;;;;;7.18;2.83;;;;;;;-5.65;100.00;101639.56;6187120;23;20020;-58
2024/01/28 11:01:58;;;;;;;5.63;2.47;;;;;;;-6.15;100.00;101634.31;6203096;23;20048;-59
2024/01/28 11:04:29;;;;;;;3.63;1.75;;;;;;;-6.47;100.00;101638.72;6188456;23;20320;-57
2024/01/28 11:07:00;;;;;;;4.03;1.95;;;;;;;-6.68;100.00;101628.72;6202876;23;20020;-61
2024/01/28 11:09:30;;;;;;;5.88;1.85;;;;;;;-6.77;100.00;101643.28;6186799;23;20107;-60
2024/01/28 11:12:01;;;;;;;1.75;1.65;;;;;;;-6.78;100.00;101652.56;6199764;23;20046;-58
2024/01/28 11:14:35;;;;;;;2.55;1.70;;;;;;;-6.69;100.00;101642.19;6186733;23;20020;-61
2024/01/28 11:17:11;;;;;;;1.92;1.58;;;;;;;-6.62;100.00;101649.50;6203627;23;20032;-59
2024/01/28 11:19:42;;;;;;;1.65;1.50;;;;;;;-6.55;100.00;101650.84;6188247;23;20024;-61
2024/01/28 11:22:16;;;;;;;4.28;1.95;;;;;;;-6.67;100.00;101635.56;6201983;23;20118;-57
2024/01/28 11:24:53;;;;;;;5.50;3.47;;;;;;;-6.66;100.00;101642.44;6202946;23;20115;-59
2024/01/28 11:27:31;;;;;;;7.05;3.85;;;;;;;-6.76;100.00;101661.19;6187667;23;20024;-58
2024/01/28 11:30:04;;;;;;;5.07;3.40;;;;;;;-6.80;100.00;101653.22;6202477;23;20348;-60
2024/01/28 11:32:35;;;;;;;4.32;2.50;;;;;;;-6.92;100.00;101652.28;6188048;23;20025;-61
2024/01/28 11:35:10;;;;;;;4.25;2.60;;;;;;;-6.99;100.00;101662.00;6203128;23;20028;-61